Athelstane, Wisconsin
Current Conditions -  °F | °C
As of 8:01 PM on Friday 19 Dec 2014 (Local Time) from KIMT Reporting Station
Haze Haze  
Wind Chill: -12°   Ceiling: 9000
Heat Index: -12°   Visibility: 3mi
Dew Point: -14°   Wind: 0mph
Humidity: 84%   Direction: NA
Pressure: 30.23"   Gusts: NA
Location:  45.42°N, 88.1°W
Report Text: KIMT 200201Z AUTO 00000KT 3SM BR BKN090 M12/M14 A3023 RMK AO2 T11221144
Loading
Personal Weather Stations






























Interactive Weather Map New forecast layout! Learn more

10-Day Weather Forecast

Advertisements
Track Severe Weather on mobile